sensor_id;sensor_type;location;lat;lon;timestamp;P1;durP1;ratioP1;P2;durP2;ratioP2
52542;SDS011;38449;52.696;6.186;2022-12-07T00:01:04;8.55;;;1.58;;
52542;SDS011;38449;52.696;6.186;2022-12-07T00:03:31;7.50;;;1.77;;
52542;SDS011;38449;52.696;6.186;2022-12-07T00:05:57;13.35;;;2.38;;
52542;SDS011;38449;52.696;6.186;2022-12-07T00:08:23;5.15;;;1.23;;
52542;SDS011;38449;52.696;6.186;2022-12-07T00:10:49;8.43;;;1.60;;
52542;SDS011;38449;52.696;6.186;2022-12-07T00:13:14;8.63;;;1.70;;
52542;SDS011;38449;52.696;6.186;2022-12-07T00:15:40;8.00;;;1.35;;
52542;SDS011;38449;52.696;6.186;2022-12-07T00:18:05;4.78;;;1.10;;
52542;SDS011;38449;52.696;6.186;2022-12-07T00:20:31;7.72;;;1.80;;
52542;SDS011;38449;52.696;6.186;2022-12-07T00:22:56;6.63;;;1.45;;
52542;SDS011;38449;52.696;6.186;2022-12-07T00:25:22;6.40;;;1.77;;
52542;SDS011;38449;52.696;6.186;2022-12-07T00:27:48;4.88;;;1.48;;
52542;SDS011;38449;52.696;6.186;2022-12-07T00:30:13;8.18;;;1.90;;
52542;SDS011;38449;52.696;6.186;2022-12-07T00:32:39;9.30;;;1.65;;
52542;SDS011;38449;52.696;6.186;2022-12-07T00:35:05;9.15;;;2.42;;
52542;SDS011;38449;52.696;6.186;2022-12-07T00:37:31;5.25;;;1.45;;
52542;SDS011;38449;52.696;6.186;2022-12-07T00:39:56;7.70;;;1.98;;
52542;SDS011;38449;52.696;6.186;2022-12-07T00:42:22;7.28;;;1.42;;
52542;SDS011;38449;52.696;6.186;2022-12-07T00:44:47;6.35;;;1.27;;
52542;SDS011;38449;52.696;6.186;2022-12-07T00:47:13;8.32;;;1.52;;
52542;SDS011;38449;52.696;6.186;2022-12-07T00:49:38;7.45;;;1.40;;
52542;SDS011;38449;52.696;6.186;2022-12-07T00:52:04;6.82;;;1.80;;
52542;SDS011;38449;52.696;6.186;2022-12-07T00:54:30;8.95;;;1.42;;
52542;SDS011;38449;52.696;6.186;2022-12-07T00:56:55;11.80;;;2.03;;
52542;SDS011;38449;52.696;6.186;2022-12-07T00:59:21;4.25;;;1.50;;
52542;SDS011;38449;52.696;6.186;2022-12-07T01:01:47;7.03;;;1.20;;
52542;SDS011;38449;52.696;6.186;2022-12-07T01:04:13;8.05;;;1.58;;
52542;SDS011;38449;52.696;6.186;2022-12-07T01:06:40;6.55;;;1.55;;
52542;SDS011;38449;52.696;6.186;2022-12-07T01:09:06;8.32;;;1.58;;
52542;SDS011;38449;52.696;6.186;2022-12-07T01:11:32;4.90;;;1.33;;
52542;SDS011;38449;52.696;6.186;2022-12-07T01:13:58;8.13;;;1.90;;
52542;SDS011;38449;52.696;6.186;2022-12-07T01:16:26;4.93;;;1.13;;
52542;SDS011;38449;52.696;6.186;2022-12-07T01:18:55;5.88;;;1.20;;
52542;SDS011;38449;52.696;6.186;2022-12-07T01:21:22;4.05;;;1.13;;
52542;SDS011;38449;52.696;6.186;2022-12-07T01:23:51;8.63;;;1.48;;
52542;SDS011;38449;52.696;6.186;2022-12-07T01:26:19;5.47;;;1.30;;
52542;SDS011;38449;52.696;6.186;2022-12-07T01:28:51;9.88;;;2.33;;
52542;SDS011;38449;52.696;6.186;2022-12-07T01:31:21;6.88;;;1.25;;
52542;SDS011;38449;52.696;6.186;2022-12-07T01:33:51;7.88;;;2.05;;
52542;SDS011;38449;52.696;6.186;2022-12-07T01:36:19;6.65;;;1.15;;
52542;SDS011;38449;52.696;6.186;2022-12-07T01:38:56;4.85;;;1.23;;
52542;SDS011;38449;52.696;6.186;2022-12-07T01:41:26;11.43;;;1.73;;
52542;SDS011;38449;52.696;6.186;2022-12-07T01:44:08;10.65;;;2.10;;
52542;SDS011;38449;52.696;6.186;2022-12-07T01:46:35;5.78;;;1.13;;
52542;SDS011;38449;52.696;6.186;2022-12-07T01:49:00;7.07;;;2.35;;
52542;SDS011;38449;52.696;6.186;2022-12-07T01:51:28;7.72;;;1.40;;
52542;SDS011;38449;52.696;6.186;2022-12-07T01:53:55;11.63;;;1.95;;
52542;SDS011;38449;52.696;6.186;2022-12-07T01:56:22;8.40;;;1.20;;
52542;SDS011;38449;52.696;6.186;2022-12-07T01:58:51;5.80;;;1.38;;
52542;SDS011;38449;52.696;6.186;2022-12-07T02:01:19;7.65;;;1.25;;
52542;SDS011;38449;52.696;6.186;2022-12-07T02:03:44;10.60;;;2.10;;
52542;SDS011;38449;52.696;6.186;2022-12-07T02:06:12;6.47;;;1.42;;
52542;SDS011;38449;52.696;6.186;2022-12-07T02:08:41;11.07;;;2.42;;
52542;SDS011;38449;52.696;6.186;2022-12-07T02:11:07;7.20;;;1.30;;
52542;SDS011;38449;52.696;6.186;2022-12-07T02:13:38;6.80;;;1.17;;
52542;SDS011;38449;52.696;6.186;2022-12-07T02:29:52;8.45;;;1.30;;
52542;SDS011;38449;52.696;6.186;2022-12-07T02:38:39;8.18;;;1.25;;
52542;SDS011;38449;52.696;6.186;2022-12-07T02:41:12;5.43;;;1.05;;
52542;SDS011;38449;52.696;6.186;2022-12-07T02:43:46;9.38;;;1.58;;
52542;SDS011;38449;52.696;6.186;2022-12-07T02:46:17;4.63;;;1.02;;
52542;SDS011;38449;52.696;6.186;2022-12-07T02:48:48;6.72;;;1.65;;
52542;SDS011;38449;52.696;6.186;2022-12-07T02:51:17;5.47;;;1.30;;
52542;SDS011;38449;52.696;6.186;2022-12-07T02:53:43;8.90;;;1.20;;
52542;SDS011;38449;52.696;6.186;2022-12-07T03:12:53;8.68;;;1.10;;
52542;SDS011;38449;52.696;6.186;2022-12-07T03:15:40;5.72;;;1.70;;
52542;SDS011;38449;52.696;6.186;2022-12-07T03:18:11;5.22;;;1.05;;
52542;SDS011;38449;52.696;6.186;2022-12-07T03:20:40;8.13;;;1.58;;
52542;SDS011;38449;52.696;6.186;2022-12-07T03:23:08;4.63;;;1.10;;
52542;SDS011;38449;52.696;6.186;2022-12-07T03:25:38;5.13;;;0.77;;
52542;SDS011;38449;52.696;6.186;2022-12-07T03:28:11;5.57;;;1.58;;
52542;SDS011;38449;52.696;6.186;2022-12-07T03:35:51;5.88;;;1.05;;
52542;SDS011;38449;52.696;6.186;2022-12-07T03:38:25;7.43;;;1.40;;
52542;SDS011;38449;52.696;6.186;2022-12-07T03:41:32;6.47;;;0.95;;
52542;SDS011;38449;52.696;6.186;2022-12-07T03:43:59;7.88;;;1.60;;
52542;SDS011;38449;52.696;6.186;2022-12-07T03:46:32;4.82;;;1.75;;
52542;SDS011;38449;52.696;6.186;2022-12-07T03:49:08;7.07;;;0.93;;
52542;SDS011;38449;52.696;6.186;2022-12-07T03:54:49;4.93;;;1.30;;
52542;SDS011;38449;52.696;6.186;2022-12-07T03:57:26;6.57;;;1.30;;
52542;SDS011;38449;52.696;6.186;2022-12-07T03:59:55;6.97;;;1.27;;
52542;SDS011;38449;52.696;6.186;2022-12-07T04:02:23;5.57;;;1.02;;
52542;SDS011;38449;52.696;6.186;2022-12-07T04:04:56;9.43;;;1.77;;
52542;SDS011;38449;52.696;6.186;2022-12-07T04:07:22;11.18;;;1.73;;
52542;SDS011;38449;52.696;6.186;2022-12-07T04:09:47;7.80;;;1.17;;
52542;SDS011;38449;52.696;6.186;2022-12-07T04:12:14;7.90;;;1.95;;
52542;SDS011;38449;52.696;6.186;2022-12-07T04:14:40;4.63;;;0.77;;
52542;SDS011;38449;52.696;6.186;2022-12-07T04:17:05;5.95;;;1.10;;
52542;SDS011;38449;52.696;6.186;2022-12-07T04:19:32;6.70;;;1.50;;
52542;SDS011;38449;52.696;6.186;2022-12-07T04:21:59;6.30;;;1.25;;
52542;SDS011;38449;52.696;6.186;2022-12-07T04:24:27;7.32;;;1.40;;
52542;SDS011;38449;52.696;6.186;2022-12-07T04:26:53;12.15;;;1.92;;
52542;SDS011;38449;52.696;6.186;2022-12-07T04:29:19;8.18;;;2.17;;
52542;SDS011;38449;52.696;6.186;2022-12-07T04:31:45;10.77;;;2.00;;
52542;SDS011;38449;52.696;6.186;2022-12-07T04:34:12;6.72;;;1.25;;
52542;SDS011;38449;52.696;6.186;2022-12-07T04:36:39;8.20;;;1.55;;
52542;SDS011;38449;52.696;6.186;2022-12-07T04:39:06;4.53;;;1.00;;
52542;SDS011;38449;52.696;6.186;2022-12-07T04:41:34;7.10;;;1.10;;
52542;SDS011;38449;52.696;6.186;2022-12-07T04:44:01;6.28;;;1.10;;
52542;SDS011;38449;52.696;6.186;2022-12-07T04:46:29;6.30;;;1.08;;
52542;SDS011;38449;52.696;6.186;2022-12-07T04:48:58;9.68;;;1.23;;
52542;SDS011;38449;52.696;6.186;2022-12-07T04:51:26;8.55;;;2.03;;
52542;SDS011;38449;52.696;6.186;2022-12-07T04:53:53;6.53;;;0.93;;
52542;SDS011;38449;52.696;6.186;2022-12-07T04:56:21;9.73;;;1.55;;
52542;SDS011;38449;52.696;6.186;2022-12-07T04:58:47;7.25;;;1.00;;
52542;SDS011;38449;52.696;6.186;2022-12-07T05:01:13;7.40;;;1.30;;
52542;SDS011;38449;52.696;6.186;2022-12-07T05:03:40;8.88;;;2.00;;
52542;SDS011;38449;52.696;6.186;2022-12-07T05:06:07;5.63;;;1.30;;
52542;SDS011;38449;52.696;6.186;2022-12-07T05:08:34;7.32;;;1.20;;
52542;SDS011;38449;52.696;6.186;2022-12-07T05:11:02;5.00;;;1.20;;
52542;SDS011;38449;52.696;6.186;2022-12-07T05:13:30;10.50;;;1.67;;
52542;SDS011;38449;52.696;6.186;2022-12-07T05:15:55;11.20;;;1.40;;
52542;SDS011;38449;52.696;6.186;2022-12-07T05:18:23;7.60;;;1.80;;
52542;SDS011;38449;52.696;6.186;2022-12-07T05:20:50;8.98;;;1.40;;
52542;SDS011;38449;52.696;6.186;2022-12-07T05:23:18;7.80;;;1.20;;
52542;SDS011;38449;52.696;6.186;2022-12-07T05:25:44;14.65;;;2.28;;
52542;SDS011;38449;52.696;6.186;2022-12-07T05:28:10;5.88;;;1.23;;
52542;SDS011;38449;52.696;6.186;2022-12-07T05:30:36;11.43;;;1.13;;
52542;SDS011;38449;52.696;6.186;2022-12-07T05:33:02;7.20;;;1.38;;
52542;SDS011;38449;52.696;6.186;2022-12-07T05:35:29;9.25;;;1.13;;
52542;SDS011;38449;52.696;6.186;2022-12-07T05:37:56;8.90;;;1.48;;
52542;SDS011;38449;52.696;6.186;2022-12-07T05:40:25;6.35;;;1.42;;
52542;SDS011;38449;52.696;6.186;2022-12-07T05:42:52;8.52;;;1.83;;
52542;SDS011;38449;52.696;6.186;2022-12-07T05:45:17;6.70;;;1.35;;
52542;SDS011;38449;52.696;6.186;2022-12-07T05:47:44;6.82;;;1.33;;
52542;SDS011;38449;52.696;6.186;2022-12-07T05:50:10;6.28;;;1.38;;
52542;SDS011;38449;52.696;6.186;2022-12-07T05:52:41;6.78;;;1.35;;
52542;SDS011;38449;52.696;6.186;2022-12-07T05:55:07;4.75;;;1.27;;
52542;SDS011;38449;52.696;6.186;2022-12-07T05:57:33;9.45;;;1.38;;
52542;SDS011;38449;52.696;6.186;2022-12-07T05:59:58;13.00;;;1.80;;
52542;SDS011;38449;52.696;6.186;2022-12-07T06:02:24;13.07;;;2.40;;
52542;SDS011;38449;52.696;6.186;2022-12-07T06:04:51;10.57;;;1.33;;
52542;SDS011;38449;52.696;6.186;2022-12-07T06:07:16;8.00;;;1.25;;
52542;SDS011;38449;52.696;6.186;2022-12-07T06:09:42;7.70;;;1.30;;
52542;SDS011;38449;52.696;6.186;2022-12-07T06:12:11;9.73;;;1.67;;
52542;SDS011;38449;52.696;6.186;2022-12-07T06:14:56;7.40;;;1.10;;
52542;SDS011;38449;52.696;6.186;2022-12-07T06:17:22;4.18;;;1.02;;
52542;SDS011;38449;52.696;6.186;2022-12-07T06:19:48;7.10;;;1.52;;
52542;SDS011;38449;52.696;6.186;2022-12-07T06:22:14;9.80;;;1.60;;
52542;SDS011;38449;52.696;6.186;2022-12-07T06:24:41;6.78;;;1.10;;
52542;SDS011;38449;52.696;6.186;2022-12-07T06:27:06;7.20;;;1.60;;
52542;SDS011;38449;52.696;6.186;2022-12-07T06:29:32;3.00;;;1.00;;
52542;SDS011;38449;52.696;6.186;2022-12-07T06:31:58;7.07;;;2.03;;
52542;SDS011;38449;52.696;6.186;2022-12-07T06:34:24;5.90;;;1.20;;
52542;SDS011;38449;52.696;6.186;2022-12-07T06:36:50;6.28;;;0.70;;
52542;SDS011;38449;52.696;6.186;2022-12-07T06:39:20;7.93;;;1.45;;
52542;SDS011;38449;52.696;6.186;2022-12-07T06:41:47;3.15;;;1.15;;
52542;SDS011;38449;52.696;6.186;2022-12-07T06:44:12;4.78;;;1.13;;
52542;SDS011;38449;52.696;6.186;2022-12-07T06:46:38;2.67;;;0.88;;
52542;SDS011;38449;52.696;6.186;2022-12-07T06:49:04;4.30;;;0.90;;
52542;SDS011;38449;52.696;6.186;2022-12-07T06:51:30;4.97;;;1.42;;
52542;SDS011;38449;52.696;6.186;2022-12-07T06:53:56;3.92;;;1.17;;
52542;SDS011;38449;52.696;6.186;2022-12-07T06:56:22;4.70;;;1.25;;
52542;SDS011;38449;52.696;6.186;2022-12-07T06:58:48;3.13;;;1.17;;
52542;SDS011;38449;52.696;6.186;2022-12-07T07:01:14;4.20;;;1.27;;
52542;SDS011;38449;52.696;6.186;2022-12-07T07:03:42;6.70;;;2.00;;
52542;SDS011;38449;52.696;6.186;2022-12-07T07:06:10;8.60;;;2.17;;
52542;SDS011;38449;52.696;6.186;2022-12-07T07:08:36;3.42;;;1.30;;
52542;SDS011;38449;52.696;6.186;2022-12-07T07:11:04;9.93;;;2.05;;
52542;SDS011;38449;52.696;6.186;2022-12-07T07:13:30;7.15;;;1.40;;
52542;SDS011;38449;52.696;6.186;2022-12-07T07:15:56;6.97;;;1.35;;
52542;SDS011;38449;52.696;6.186;2022-12-07T07:18:30;8.65;;;2.20;;
52542;SDS011;38449;52.696;6.186;2022-12-07T07:23:22;5.10;;;1.92;;
52542;SDS011;38449;52.696;6.186;2022-12-07T07:25:48;6.88;;;2.00;;
52542;SDS011;38449;52.696;6.186;2022-12-07T07:28:14;9.85;;;1.85;;
52542;SDS011;38449;52.696;6.186;2022-12-07T07:30:40;7.22;;;1.45;;
52542;SDS011;38449;52.696;6.186;2022-12-07T07:33:07;8.40;;;1.90;;
52542;SDS011;38449;52.696;6.186;2022-12-07T07:35:35;20.08;;;3.03;;
52542;SDS011;38449;52.696;6.186;2022-12-07T07:38:01;20.85;;;4.88;;
52542;SDS011;38449;52.696;6.186;2022-12-07T07:40:28;17.95;;;3.10;;
52542;SDS011;38449;52.696;6.186;2022-12-07T07:42:55;11.73;;;3.25;;
52542;SDS011;38449;52.696;6.186;2022-12-07T07:45:22;12.13;;;2.72;;
52542;SDS011;38449;52.696;6.186;2022-12-07T07:47:50;8.68;;;1.95;;
52542;SDS011;38449;52.696;6.186;2022-12-07T07:50:16;12.32;;;2.28;;
52542;SDS011;38449;52.696;6.186;2022-12-07T07:52:42;18.75;;;3.53;;
52542;SDS011;38449;52.696;6.186;2022-12-07T07:55:12;15.93;;;3.13;;
52542;SDS011;38449;52.696;6.186;2022-12-07T07:57:40;11.48;;;2.75;;
52542;SDS011;38449;52.696;6.186;2022-12-07T08:00:11;12.25;;;3.05;;
52542;SDS011;38449;52.696;6.186;2022-12-07T08:02:39;11.13;;;2.28;;
52542;SDS011;38449;52.696;6.186;2022-12-07T08:05:05;11.43;;;2.17;;
52542;SDS011;38449;52.696;6.186;2022-12-07T08:07:31;14.88;;;3.35;;
52542;SDS011;38449;52.696;6.186;2022-12-07T08:09:57;18.50;;;4.03;;
52542;SDS011;38449;52.696;6.186;2022-12-07T08:12:22;19.48;;;3.15;;
52542;SDS011;38449;52.696;6.186;2022-12-07T08:14:48;19.77;;;4.05;;
52542;SDS011;38449;52.696;6.186;2022-12-07T08:17:13;32.03;;;6.88;;
52542;SDS011;38449;52.696;6.186;2022-12-07T08:19:39;16.15;;;4.30;;
52542;SDS011;38449;52.696;6.186;2022-12-07T08:22:05;10.13;;;2.42;;
52542;SDS011;38449;52.696;6.186;2022-12-07T08:24:32;16.50;;;3.03;;
52542;SDS011;38449;52.696;6.186;2022-12-07T08:26:59;21.83;;;3.90;;
52542;SDS011;38449;52.696;6.186;2022-12-07T08:29:25;20.17;;;4.53;;
52542;SDS011;38449;52.696;6.186;2022-12-07T08:31:50;29.30;;;5.50;;
52542;SDS011;38449;52.696;6.186;2022-12-07T08:34:16;24.13;;;5.53;;
52542;SDS011;38449;52.696;6.186;2022-12-07T08:36:41;32.78;;;5.93;;
52542;SDS011;38449;52.696;6.186;2022-12-07T08:39:07;20.55;;;4.65;;
52542;SDS011;38449;52.696;6.186;2022-12-07T08:41:33;21.38;;;3.53;;
52542;SDS011;38449;52.696;6.186;2022-12-07T08:43:58;27.70;;;5.50;;
52542;SDS011;38449;52.696;6.186;2022-12-07T08:51:28;18.58;;;4.78;;
52542;SDS011;38449;52.696;6.186;2022-12-07T08:53:53;25.90;;;4.60;;
52542;SDS011;38449;52.696;6.186;2022-12-07T08:56:22;17.92;;;3.10;;
52542;SDS011;38449;52.696;6.186;2022-12-07T08:58:48;12.55;;;2.97;;
52542;SDS011;38449;52.696;6.186;2022-12-07T09:01:14;16.63;;;3.15;;
52542;SDS011;38449;52.696;6.186;2022-12-07T09:03:39;35.50;;;8.35;;
52542;SDS011;38449;52.696;6.186;2022-12-07T09:06:05;36.03;;;6.72;;
52542;SDS011;38449;52.696;6.186;2022-12-07T09:08:33;17.38;;;3.28;;
52542;SDS011;38449;52.696;6.186;2022-12-07T09:11:01;20.80;;;4.38;;
52542;SDS011;38449;52.696;6.186;2022-12-07T09:13:27;9.30;;;2.30;;
52542;SDS011;38449;52.696;6.186;2022-12-07T09:15:52;13.38;;;1.88;;
52542;SDS011;38449;52.696;6.186;2022-12-07T09:18:18;8.63;;;1.83;;
52542;SDS011;38449;52.696;6.186;2022-12-07T09:20:44;8.35;;;1.70;;
52542;SDS011;38449;52.696;6.186;2022-12-07T09:23:09;10.18;;;1.77;;
52542;SDS011;38449;52.696;6.186;2022-12-07T09:25:35;7.63;;;2.20;;
52542;SDS011;38449;52.696;6.186;2022-12-07T09:28:01;8.57;;;2.15;;
52542;SDS011;38449;52.696;6.186;2022-12-07T09:30:26;7.47;;;1.30;;
52542;SDS011;38449;52.696;6.186;2022-12-07T09:32:53;6.13;;;1.60;;
52542;SDS011;38449;52.696;6.186;2022-12-07T09:35:20;8.82;;;1.65;;
52542;SDS011;38449;52.696;6.186;2022-12-07T09:37:45;6.85;;;1.27;;
52542;SDS011;38449;52.696;6.186;2022-12-07T09:40:12;7.05;;;1.80;;
52542;SDS011;38449;52.696;6.186;2022-12-07T09:42:39;10.65;;;1.67;;
52542;SDS011;38449;52.696;6.186;2022-12-07T09:45:52;9.38;;;2.30;;
52542;SDS011;38449;52.696;6.186;2022-12-07T09:48:03;8.55;;;1.80;;
52542;SDS011;38449;52.696;6.186;2022-12-07T09:50:40;10.00;;;1.58;;
52542;SDS011;38449;52.696;6.186;2022-12-07T09:53:15;6.97;;;2.03;;
52542;SDS011;38449;52.696;6.186;2022-12-07T09:55:56;10.27;;;2.38;;
52542;SDS011;38449;52.696;6.186;2022-12-07T09:58:22;8.85;;;1.95;;
52542;SDS011;38449;52.696;6.186;2022-12-07T10:00:57;10.27;;;2.95;;
52542;SDS011;38449;52.696;6.186;2022-12-07T10:03:29;7.40;;;1.85;;
52542;SDS011;38449;52.696;6.186;2022-12-07T10:05:54;8.10;;;1.65;;
52542;SDS011;38449;52.696;6.186;2022-12-07T10:08:24;12.48;;;2.15;;
52542;SDS011;38449;52.696;6.186;2022-12-07T10:10:52;10.00;;;2.30;;
52542;SDS011;38449;52.696;6.186;2022-12-07T10:13:34;6.55;;;1.45;;
52542;SDS011;38449;52.696;6.186;2022-12-07T10:16:01;5.88;;;1.63;;
52542;SDS011;38449;52.696;6.186;2022-12-07T10:18:35;9.73;;;2.40;;
52542;SDS011;38449;52.696;6.186;2022-12-07T10:23:43;7.47;;;2.33;;
52542;SDS011;38449;52.696;6.186;2022-12-07T10:26:40;5.57;;;1.47;;
52542;SDS011;38449;52.696;6.186;2022-12-07T10:29:17;10.10;;;2.22;;
52542;SDS011;38449;52.696;6.186;2022-12-07T10:32:01;8.57;;;1.52;;
52542;SDS011;38449;52.696;6.186;2022-12-07T10:34:30;7.85;;;2.33;;
52542;SDS011;38449;52.696;6.186;2022-12-07T10:37:17;8.82;;;2.22;;
52542;SDS011;38449;52.696;6.186;2022-12-07T10:39:48;8.23;;;1.73;;
52542;SDS011;38449;52.696;6.186;2022-12-07T10:42:19;7.57;;;2.40;;
52542;SDS011;38449;52.696;6.186;2022-12-07T10:44:50;8.82;;;1.50;;
52542;SDS011;38449;52.696;6.186;2022-12-07T10:47:46;9.02;;;1.63;;
52542;SDS011;38449;52.696;6.186;2022-12-07T10:50:40;9.00;;;2.28;;
52542;SDS011;38449;52.696;6.186;2022-12-07T11:00:00;7.57;;;2.20;;
52542;SDS011;38449;52.696;6.186;2022-12-07T11:08:09;5.57;;;1.65;;
52542;SDS011;38449;52.696;6.186;2022-12-07T11:10:44;7.55;;;1.50;;
52542;SDS011;38449;52.696;6.186;2022-12-07T11:13:39;8.68;;;2.10;;
52542;SDS011;38449;52.696;6.186;2022-12-07T11:19:11;10.18;;;1.55;;
52542;SDS011;38449;52.696;6.186;2022-12-07T11:24:40;9.23;;;2.13;;
52542;SDS011;38449;52.696;6.186;2022-12-07T11:32:49;12.10;;;2.47;;
52542;SDS011;38449;52.696;6.186;2022-12-07T11:38:16;10.07;;;2.28;;
52542;SDS011;38449;52.696;6.186;2022-12-07T11:40:47;9.43;;;2.40;;
52542;SDS011;38449;52.696;6.186;2022-12-07T11:43:20;7.43;;;1.60;;
52542;SDS011;38449;52.696;6.186;2022-12-07T11:46:03;6.47;;;1.60;;
52542;SDS011;38449;52.696;6.186;2022-12-07T11:48:41;8.45;;;2.35;;
52542;SDS011;38449;52.696;6.186;2022-12-07T11:51:14;9.75;;;1.98;;
52542;SDS011;38449;52.696;6.186;2022-12-07T11:56:21;7.95;;;1.88;;
52542;SDS011;38449;52.696;6.186;2022-12-07T12:01:35;9.25;;;1.88;;
52542;SDS011;38449;52.696;6.186;2022-12-07T12:07:41;4.60;;;1.20;;
52542;SDS011;38449;52.696;6.186;2022-12-07T12:10:15;9.38;;;2.05;;
52542;SDS011;38449;52.696;6.186;2022-12-07T12:18:53;11.10;;;2.00;;
52542;SDS011;38449;52.696;6.186;2022-12-07T12:21:32;6.95;;;1.38;;
52542;SDS011;38449;52.696;6.186;2022-12-07T12:24:00;7.55;;;1.60;;
52542;SDS011;38449;52.696;6.186;2022-12-07T12:26:35;5.75;;;1.45;;
52542;SDS011;38449;52.696;6.186;2022-12-07T12:29:04;7.55;;;1.58;;
52542;SDS011;38449;52.696;6.186;2022-12-07T12:31:39;6.15;;;1.77;;
52542;SDS011;38449;52.696;6.186;2022-12-07T12:36:56;7.68;;;2.10;;
52542;SDS011;38449;52.696;6.186;2022-12-07T12:39:22;9.40;;;1.80;;
52542;SDS011;38449;52.696;6.186;2022-12-07T12:47:00;14.55;;;2.22;;
52542;SDS011;38449;52.696;6.186;2022-12-07T12:49:42;10.55;;;2.08;;
52542;SDS011;38449;52.696;6.186;2022-12-07T12:52:48;7.47;;;1.92;;
52542;SDS011;38449;52.696;6.186;2022-12-07T12:55:28;9.13;;;1.83;;
52542;SDS011;38449;52.696;6.186;2022-12-07T12:58:21;7.60;;;2.15;;
52542;SDS011;38449;52.696;6.186;2022-12-07T13:00:47;7.35;;;1.67;;
52542;SDS011;38449;52.696;6.186;2022-12-07T13:03:34;10.77;;;1.90;;
52542;SDS011;38449;52.696;6.186;2022-12-07T13:06:19;7.25;;;1.70;;
52542;SDS011;38449;52.696;6.186;2022-12-07T13:08:54;8.18;;;1.77;;
52542;SDS011;38449;52.696;6.186;2022-12-07T13:11:30;8.55;;;1.95;;
52542;SDS011;38449;52.696;6.186;2022-12-07T13:14:59;8.82;;;2.20;;
52542;SDS011;38449;52.696;6.186;2022-12-07T13:17:12;8.90;;;2.13;;
52542;SDS011;38449;52.696;6.186;2022-12-07T13:27:44;11.23;;;1.92;;
52542;SDS011;38449;52.696;6.186;2022-12-07T13:30:21;10.10;;;1.92;;
52542;SDS011;38449;52.696;6.186;2022-12-07T13:32:57;6.07;;;1.67;;
52542;SDS011;38449;52.696;6.186;2022-12-07T13:35:27;7.10;;;1.60;;
52542;SDS011;38449;52.696;6.186;2022-12-07T13:37:54;12.40;;;2.33;;
52542;SDS011;38449;52.696;6.186;2022-12-07T13:40:20;6.05;;;1.42;;
52542;SDS011;38449;52.696;6.186;2022-12-07T13:42:47;8.00;;;1.77;;
52542;SDS011;38449;52.696;6.186;2022-12-07T13:45:23;8.38;;;1.80;;
52542;SDS011;38449;52.696;6.186;2022-12-07T13:50:55;7.53;;;2.03;;
52542;SDS011;38449;52.696;6.186;2022-12-07T13:53:22;11.27;;;2.60;;
52542;SDS011;38449;52.696;6.186;2022-12-07T13:55:48;7.50;;;2.22;;
52542;SDS011;38449;52.696;6.186;2022-12-07T13:58:14;9.70;;;2.00;;
52542;SDS011;38449;52.696;6.186;2022-12-07T14:00:41;9.02;;;1.85;;
52542;SDS011;38449;52.696;6.186;2022-12-07T14:05:40;5.85;;;1.65;;
52542;SDS011;38449;52.696;6.186;2022-12-07T14:10:36;6.90;;;1.77;;
52542;SDS011;38449;52.696;6.186;2022-12-07T14:13:50;4.65;;;1.40;;
52542;SDS011;38449;52.696;6.186;2022-12-07T14:16:01;4.30;;;1.30;;
52542;SDS011;38449;52.696;6.186;2022-12-07T14:18:38;9.43;;;1.92;;
52542;SDS011;38449;52.696;6.186;2022-12-07T14:21:06;6.15;;;1.58;;
52542;SDS011;38449;52.696;6.186;2022-12-07T14:23:34;7.15;;;1.85;;
52542;SDS011;38449;52.696;6.186;2022-12-07T14:26:07;7.82;;;1.65;;
52542;SDS011;38449;52.696;6.186;2022-12-07T14:28:36;9.82;;;1.35;;
52542;SDS011;38449;52.696;6.186;2022-12-07T14:31:02;6.45;;;1.50;;
52542;SDS011;38449;52.696;6.186;2022-12-07T14:33:35;6.18;;;1.98;;
52542;SDS011;38449;52.696;6.186;2022-12-07T14:36:03;7.10;;;1.80;;
52542;SDS011;38449;52.696;6.186;2022-12-07T14:38:29;5.57;;;1.90;;
52542;SDS011;38449;52.696;6.186;2022-12-07T14:40:54;6.97;;;1.80;;
52542;SDS011;38449;52.696;6.186;2022-12-07T14:43:41;5.75;;;1.80;;
52542;SDS011;38449;52.696;6.186;2022-12-07T14:46:06;7.85;;;1.80;;
52542;SDS011;38449;52.696;6.186;2022-12-07T14:48:33;7.07;;;1.80;;
52542;SDS011;38449;52.696;6.186;2022-12-07T14:50:59;4.93;;;1.45;;
52542;SDS011;38449;52.696;6.186;2022-12-07T14:53:27;5.13;;;1.77;;
52542;SDS011;38449;52.696;6.186;2022-12-07T14:55:58;4.07;;;1.10;;
52542;SDS011;38449;52.696;6.186;2022-12-07T14:58:27;5.65;;;1.30;;
52542;SDS011;38449;52.696;6.186;2022-12-07T15:00:52;7.30;;;1.67;;
52542;SDS011;38449;52.696;6.186;2022-12-07T15:03:18;4.47;;;1.40;;
52542;SDS011;38449;52.696;6.186;2022-12-07T15:05:44;8.40;;;1.77;;
52542;SDS011;38449;52.696;6.186;2022-12-07T15:08:15;8.00;;;1.95;;
52542;SDS011;38449;52.696;6.186;2022-12-07T15:10:40;4.53;;;1.30;;
52542;SDS011;38449;52.696;6.186;2022-12-07T15:13:07;4.10;;;1.20;;
52542;SDS011;38449;52.696;6.186;2022-12-07T15:18:18;6.88;;;0.77;;
52542;SDS011;38449;52.696;6.186;2022-12-07T15:20:45;3.58;;;1.00;;
52542;SDS011;38449;52.696;6.186;2022-12-07T15:23:11;6.72;;;1.83;;
52542;SDS011;38449;52.696;6.186;2022-12-07T15:25:45;6.32;;;2.50;;
52542;SDS011;38449;52.696;6.186;2022-12-07T15:28:12;5.30;;;1.70;;
52542;SDS011;38449;52.696;6.186;2022-12-07T15:30:39;5.20;;;1.42;;
52542;SDS011;38449;52.696;6.186;2022-12-07T15:33:05;1.85;;;0.65;;
52542;SDS011;38449;52.696;6.186;2022-12-07T15:35:31;3.38;;;1.25;;
52542;SDS011;38449;52.696;6.186;2022-12-07T15:37:57;4.82;;;1.20;;
52542;SDS011;38449;52.696;6.186;2022-12-07T15:40:22;3.20;;;1.02;;
52542;SDS011;38449;52.696;6.186;2022-12-07T15:42:48;3.80;;;1.30;;
52542;SDS011;38449;52.696;6.186;2022-12-07T15:45:13;5.82;;;1.20;;
52542;SDS011;38449;52.696;6.186;2022-12-07T15:47:41;2.55;;;1.02;;
52542;SDS011;38449;52.696;6.186;2022-12-07T15:50:09;3.88;;;0.90;;
52542;SDS011;38449;52.696;6.186;2022-12-07T15:52:36;5.05;;;1.40;;
52542;SDS011;38449;52.696;6.186;2022-12-07T15:55:02;8.40;;;1.50;;
52542;SDS011;38449;52.696;6.186;2022-12-07T15:57:29;6.43;;;1.75;;
52542;SDS011;38449;52.696;6.186;2022-12-07T15:59:55;4.80;;;1.48;;
52542;SDS011;38449;52.696;6.186;2022-12-07T16:02:21;4.90;;;0.90;;
52542;SDS011;38449;52.696;6.186;2022-12-07T16:04:50;7.22;;;1.77;;
52542;SDS011;38449;52.696;6.186;2022-12-07T16:07:17;3.03;;;1.00;;
52542;SDS011;38449;52.696;6.186;2022-12-07T16:09:43;5.05;;;1.58;;
52542;SDS011;38449;52.696;6.186;2022-12-07T16:12:11;6.45;;;1.70;;
52542;SDS011;38449;52.696;6.186;2022-12-07T16:14:38;6.22;;;1.85;;
52542;SDS011;38449;52.696;6.186;2022-12-07T16:17:04;5.72;;;2.25;;
52542;SDS011;38449;52.696;6.186;2022-12-07T16:19:31;9.18;;;2.47;;
52542;SDS011;38449;52.696;6.186;2022-12-07T16:21:57;7.65;;;2.75;;
52542;SDS011;38449;52.696;6.186;2022-12-07T16:24:23;19.88;;;7.20;;
52542;SDS011;38449;52.696;6.186;2022-12-07T16:26:49;19.33;;;7.78;;
52542;SDS011;38449;52.696;6.186;2022-12-07T16:29:15;10.13;;;2.60;;
52542;SDS011;38449;52.696;6.186;2022-12-07T16:31:41;3.30;;;1.15;;
52542;SDS011;38449;52.696;6.186;2022-12-07T16:34:07;5.32;;;1.92;;
52542;SDS011;38449;52.696;6.186;2022-12-07T16:36:33;5.47;;;1.75;;
52542;SDS011;38449;52.696;6.186;2022-12-07T16:39:00;22.75;;;4.97;;
52542;SDS011;38449;52.696;6.186;2022-12-07T16:41:27;17.60;;;5.15;;
52542;SDS011;38449;52.696;6.186;2022-12-07T16:43:52;13.45;;;3.10;;
52542;SDS011;38449;52.696;6.186;2022-12-07T16:46:18;8.43;;;2.22;;
52542;SDS011;38449;52.696;6.186;2022-12-07T16:48:44;7.90;;;2.75;;
52542;SDS011;38449;52.696;6.186;2022-12-07T16:51:11;9.15;;;1.55;;
52542;SDS011;38449;52.696;6.186;2022-12-07T16:53:38;4.93;;;1.40;;
52542;SDS011;38449;52.696;6.186;2022-12-07T16:56:12;2.00;;;1.10;;
52542;SDS011;38449;52.696;6.186;2022-12-07T16:58:39;2.90;;;0.68;;
52542;SDS011;38449;52.696;6.186;2022-12-07T17:01:14;2.47;;;0.93;;